This demonstration page uses our WeatherBlox Daily Observations layout. Learn more.

Left ArrowRight Arrow

36.19886, -115.1175

Hourly Observations for September 24, 2020

Temp ( °F °C ) Dew Point ( °F °C ) Humidity (%) Winds ( mph kmh ) Pressure ( in mb ) Visibility ( mi km ) Precip ( " mm )
12:53 am 00:53 Clear 79 26.1 39 3.9 24 24 Calm 29.91 1013 10 16.0934 0 0
1:53 am 01:53 Clear 84 28.9 35 1.7 17 17 NNW 5 7 29.9 1013 10 16.0934 0 0
2:53 am 02:53 Clear 78 25.6 34 1.1 20 20 NW 7 11 29.89 1012 10 16.0934 0 0
3:53 am 03:53 Clear 77 25 35 1.7 22 22 Calm 29.89 1012 10 16.0934 0 0
4:53 am 04:53 Clear 76 24.4 36 2.2 23 23 NNW 5 7 29.9 1013 10 16.0934 0 0
5:53 am 05:53 Clear 78 25.6 34 1.1 20 20 WNW 7 11 29.9 1013 10 16.0934 0 0
6:53 am 06:53 Sunny 74 23.3 34 1.1 23 23 NNW 5 7 29.93 1013 10 16.0934 0 0
7:53 am 07:53 Sunny 78 25.6 35 1.7 21 21 NNW 6 9 29.93 1014 10 16.0934 0 0
8:53 am 08:53 Sunny 85 29.4 35 1.7 17 17 Calm 29.93 1014 10 16.0934 0 0
9:53 am 09:53 Sunny 87 30.6 34 1.1 15 15 ENE 7 11 29.94 1014 10 16.0934 0 0
10:53 am 10:53 Sunny 91 32.8 34 1.1 13 13 Calm 29.92 1013 10 16.0934 0 0
11:53 am 11:53 Sunny 93 33.9 34 1.1 12 12 VRB 5 7 29.9 1013 10 16.0934 0 0
12:53 pm 12:53 Sunny 96 35.6 35 1.7 12 12 SE 5 7 29.87 1012 10 16.0934 0 0
1:53 pm 13:53 Sunny 99 37.2 36 2.2 11 11 VRB 5 7 29.83 1010 10 16.0934 0 0
2:53 pm 14:53 Sunny 101 38.3 36 2.2 10 10 SSE 12 19 29.8 1009 10 16.0934 0 0
3:53 pm 15:53 Sunny 101 38.3 36 2.2 10 10 SSE 7 11 29.77 1008 10 16.0934 0 0
4:53 pm 16:53 Sunny 101 38.3 34 1.1 10 10 SSW 12 19 29.75 1007 10 16.0934 0 0
5:53 pm 17:53 Sunny 99 37.2 33 0.6 10 10 WSW 16 26 29.74 1007 10 16.0934 0 0
6:53 pm 18:53 Clear 96 35.6 33 0.6 11 11 WSW 12 19 29.75 1008 10 16.0934 0 0
7:53 pm 19:53 Clear 94 34.4 33 0.6 12 12 WSW 8 13 29.78 1008 10 16.0934 0 0
8:53 pm 20:53 Clear 92 33.3 33 0.6 12 12 SSW 8 13 29.79 1009 10 16.0934 0 0
9:53 pm 21:53 Clear 88 31.1 34 1.1 15 15 S 5 7 29.79 1009 10 16.0934 0 0
10:53 pm 22:53 Clear 87 30.6 33 0.6 14 14 S 10 17 29.79 1009 10 16.0934 0 0
11:53 pm 23:53 Clear 85 29.4 33 0.6 15 15 SW 6 9 29.78 1009 10 16.0934 0 0

Powered by AerisWeather